»·PEaware :: N809 KAJO-CL18

N809 :: KAJO-CL18

FLIGHT INFORMATION

Flight Status: Arrived
Operator: Privately registered:
United States
More flights under this callsign
Pilot: Christian K. (13941)
Aircraft: PIPER PA-28R-201 ARROW
(P28R)
More flights by this aircraft type
Origin: KAJO Corona Mun
United States
Destination: CL18 Danby Airstrip
Canada
More flights between these airports :: More routes between these airports
Route:
File this flight plan on PilotEdge
Remarks:
Altitude:
(Current/Filed)
7,500ft
Speed:
(Current/Filed)
120kts
Departed: 19-Nov-17 02:30 PM
Arrived: 19-Nov-17 03:40 PM
Distance/Time
Traveled:
118nm/1:10
Distance/Time
To Go:
Arrived

Flight Plot

Page will automatically refresh every two minutes.

Flight plan parsing failed; only flown route is shown


Map Options




Map Legend


Flown Route
Filed Route
Departure Airport
Arrival Airport
Navaid (VOR, NDB)
Fix

Horizontal Profiles

Position Reports

Time Latitude Longitude Heading Altitude Ground
Speed
19-Nov-17 14:24 33.896741 -117.597531 90 536ft 0kts
19-Nov-17 14:25 33.896741 -117.597531 90 536ft 0kts
19-Nov-17 14:26 33.896741 -117.597531 90 536ft 0kts
19-Nov-17 14:27 33.896741 -117.597531 90 536ft 0kts
19-Nov-17 14:31 33.896739 -117.597537 90 536ft 0kts
19-Nov-17 14:32 33.896739 -117.597537 90 536ft 0kts
19-Nov-17 14:33 33.896739 -117.597521 92 536ft 0kts
19-Nov-17 14:34 33.897328 -117.597461 346 536ft 2kts
19-Nov-17 14:35 33.897581 -117.607224 267 578ft 82kts
19-Nov-17 14:36 33.884326 -117.620651 130 1449ft 86kts
19-Nov-17 14:37 33.878362 -117.593863 91 2446ft 86kts
19-Nov-17 14:38 33.879244 -117.566653 77 3415ft 85kts
19-Nov-17 14:39 33.885893 -117.540057 62 4297ft 88kts
19-Nov-17 14:40 33.895662 -117.513690 64 5119ft 92kts
19-Nov-17 14:41 33.903318 -117.485289 74 5937ft 92kts
19-Nov-17 14:42 33.909047 -117.457227 77 6740ft 89kts
19-Nov-17 14:43 33.914846 -117.429651 65 7453ft 92kts
19-Nov-17 14:44 33.927959 -117.398111 46 7537ft 121kts
19-Nov-17 14:45 33.950715 -117.367569 45 7519ft 127kts
19-Nov-17 14:46 33.972404 -117.338429 46 7517ft 127kts
19-Nov-17 14:47 33.993623 -117.306474 75 7514ft 129kts
19-Nov-17 14:48 33.999612 -117.265007 79 7520ft 129kts
19-Nov-17 14:49 34.004933 -117.222992 79 7521ft 129kts
19-Nov-17 14:50 34.010129 -117.181060 79 7521ft 129kts
19-Nov-17 14:51 34.015338 -117.138759 79 7522ft 129kts
19-Nov-17 14:52 34.020553 -117.096384 79 7523ft 129kts
19-Nov-17 14:53 34.025756 -117.054139 79 7523ft 129kts
19-Nov-17 14:54 34.030933 -117.011839 80 7523ft 129kts
19-Nov-17 14:55 34.036070 -116.969655 80 7523ft 129kts
19-Nov-17 14:56 34.040159 -116.927439 100 7519ft 130kts
19-Nov-17 14:57 34.024650 -116.889302 121 7523ft 130kts
19-Nov-17 14:58 34.006800 -116.852194 109 7524ft 130kts
19-Nov-17 14:59 33.999513 -116.810396 98 7528ft 129kts
19-Nov-17 15:00 34.008572 -116.770253 62 7531ft 127kts
19-Nov-17 15:01 34.023449 -116.732564 62 7534ft 126kts
19-Nov-17 15:02 34.038499 -116.695130 63 7536ft 126kts
19-Nov-17 15:03 34.053012 -116.657539 64 7536ft 126kts
19-Nov-17 15:04 34.068000 -116.618849 65 7544ft 130kts
19-Nov-17 15:05 34.082734 -116.579439 66 7543ft 131kts
19-Nov-17 15:06 34.097588 -116.539816 65 7547ft 131kts
19-Nov-17 15:07 34.097299 -116.501756 111 7550ft 129kts
19-Nov-17 15:08 34.084210 -116.461791 113 7545ft 129kts
19-Nov-17 15:09 34.070659 -116.422068 113 7541ft 129kts
19-Nov-17 15:10 34.057096 -116.382561 113 7546ft 129kts
19-Nov-17 15:11 34.043458 -116.344451 110 7559ft 128kts
19-Nov-17 15:12 34.030489 -116.305946 110 7569ft 129kts
19-Nov-17 15:13 34.017056 -116.266372 111 7574ft 129kts
19-Nov-17 15:14 34.003475 -116.226754 111 7574ft 130kts
19-Nov-17 15:15 33.989717 -116.186808 111 7570ft 131kts
19-Nov-17 15:16 33.975935 -116.146916 112 7546ft 132kts
19-Nov-17 15:17 33.962083 -116.107011 112 7527ft 131kts
19-Nov-17 15:18 33.948283 -116.067286 112 7514ft 130kts
19-Nov-17 15:19 33.934424 -116.027382 112 7502ft 130kts
19-Nov-17 15:20 33.920605 -115.987623 112 7489ft 130kts
19-Nov-17 15:21 33.907228 -115.947797 96 7480ft 130kts
19-Nov-17 15:22 33.930556 -115.918866 33 7493ft 127kts
19-Nov-17 15:23 33.960050 -115.894791 33 7402ft 130kts
19-Nov-17 15:24 33.989281 -115.871117 32 7426ft 127kts
19-Nov-17 15:25 34.018133 -115.847762 32 7454ft 126kts
19-Nov-17 15:26 34.047041 -115.824288 32 7480ft 126kts
19-Nov-17 15:27 34.075894 -115.800953 32 7507ft 126kts
19-Nov-17 15:28 34.104880 -115.777452 32 7515ft 127kts
19-Nov-17 15:29 34.133032 -115.752237 36 7514ft 128kts
19-Nov-17 15:30 34.160933 -115.726312 36 7514ft 128kts
19-Nov-17 15:31 34.188645 -115.699925 37 7514ft 128kts
19-Nov-17 15:32 34.216323 -115.673963 36 7514ft 128kts
19-Nov-17 15:33 34.244230 -115.647955 36 7514ft 128kts
19-Nov-17 15:34 34.272188 -115.621889 36 7514ft 128kts
19-Nov-17 15:35 34.300438 -115.595532 36 7084ft 132kts
19-Nov-17 15:36 34.329062 -115.568813 36 6326ft 130kts
19-Nov-17 15:37 34.357277 -115.542440 36 5599ft 129kts
19-Nov-17 15:38 34.385082 -115.516421 36 4902ft 127kts
19-Nov-17 15:39 34.412722 -115.490533 37 4230ft 126kts
19-Nov-17 15:40 34.440230 -115.464750 37 3582ft 125kts
19-Nov-17 15:41 34.468931 -115.441836 31 2965ft 124kts
19-Nov-17 15:42 34.497023 -115.419682 33 2592ft 118kts
19-Nov-17 15:43 34.524299 -115.399615 36 2097ft 106kts
19-Nov-17 15:44 34.543086 -115.375820 49 1610ft 85kts
19-Nov-17 15:45 34.555170 -115.355701 68 1404ft 35kts

Navigation Log

Ident Type
Flight plan parsing failed, navigation log unavailable